sensor_id;sensor_type;location;lat;lon;timestamp;P1;durP1;ratioP1;P2;durP2;ratioP2
73859;SDS011;62197;51.632;13.700;2022-10-31T00:01:19;26.15;;;15.13;;
73859;SDS011;62197;51.632;13.700;2022-10-31T00:03:46;29.55;;;14.77;;
73859;SDS011;62197;51.632;13.700;2022-10-31T00:08:38;24.95;;;14.32;;
73859;SDS011;62197;51.632;13.700;2022-10-31T00:11:03;26.58;;;14.73;;
73859;SDS011;62197;51.632;13.700;2022-10-31T00:15:53;22.63;;;13.43;;
73859;SDS011;62197;51.632;13.700;2022-10-31T00:20:44;24.97;;;13.90;;
73859;SDS011;62197;51.632;13.700;2022-10-31T00:25:36;22.52;;;13.20;;
73859;SDS011;62197;51.632;13.700;2022-10-31T00:28:04;25.67;;;13.88;;
73859;SDS011;62197;51.632;13.700;2022-10-31T00:30:30;21.73;;;13.40;;
73859;SDS011;62197;51.632;13.700;2022-10-31T00:35:21;26.92;;;14.15;;
73859;SDS011;62197;51.632;13.700;2022-10-31T00:40:12;23.43;;;12.80;;
73859;SDS011;62197;51.632;13.700;2022-10-31T00:45:04;25.75;;;13.55;;
73859;SDS011;62197;51.632;13.700;2022-10-31T00:49:54;24.33;;;14.20;;
73859;SDS011;62197;51.632;13.700;2022-10-31T00:52:20;23.58;;;13.35;;
73859;SDS011;62197;51.632;13.700;2022-10-31T00:57:10;26.13;;;13.03;;
73859;SDS011;62197;51.632;13.700;2022-10-31T00:59:35;28.67;;;14.48;;
73859;SDS011;62197;51.632;13.700;2022-10-31T01:04:26;24.65;;;12.05;;
73859;SDS011;62197;51.632;13.700;2022-10-31T01:06:51;22.42;;;12.82;;
73859;SDS011;62197;51.632;13.700;2022-10-31T01:09:17;25.10;;;13.82;;
73859;SDS011;62197;51.632;13.700;2022-10-31T01:11:42;25.58;;;11.90;;
73859;SDS011;62197;51.632;13.700;2022-10-31T01:14:08;26.92;;;14.85;;
73859;SDS011;62197;51.632;13.700;2022-10-31T01:16:33;25.75;;;13.38;;
73859;SDS011;62197;51.632;13.700;2022-10-31T01:18:59;32.40;;;15.65;;
73859;SDS011;62197;51.632;13.700;2022-10-31T01:21:25;28.95;;;15.25;;
73859;SDS011;62197;51.632;13.700;2022-10-31T01:23:53;31.27;;;14.88;;
73859;SDS011;62197;51.632;13.700;2022-10-31T01:26:21;26.02;;;15.02;;
73859;SDS011;62197;51.632;13.700;2022-10-31T01:28:49;25.45;;;13.93;;
73859;SDS011;62197;51.632;13.700;2022-10-31T01:31:16;25.70;;;15.00;;
73859;SDS011;62197;51.632;13.700;2022-10-31T01:33:42;24.92;;;14.38;;
73859;SDS011;62197;51.632;13.700;2022-10-31T01:38:38;24.25;;;12.90;;
73859;SDS011;62197;51.632;13.700;2022-10-31T01:43:51;31.10;;;14.60;;
73859;SDS011;62197;51.632;13.700;2022-10-31T01:46:14;27.83;;;14.60;;
73859;SDS011;62197;51.632;13.700;2022-10-31T01:48:42;23.27;;;14.35;;
73859;SDS011;62197;51.632;13.700;2022-10-31T01:53:34;25.02;;;12.63;;
73859;SDS011;62197;51.632;13.700;2022-10-31T01:56:01;27.58;;;12.60;;
73859;SDS011;62197;51.632;13.700;2022-10-31T02:00:53;24.80;;;13.95;;
73859;SDS011;62197;51.632;13.700;2022-10-31T02:03:22;24.60;;;13.73;;
73859;SDS011;62197;51.632;13.700;2022-10-31T02:05:49;25.05;;;15.20;;
73859;SDS011;62197;51.632;13.700;2022-10-31T02:08:26;28.60;;;14.85;;
73859;SDS011;62197;51.632;13.700;2022-10-31T02:10:52;23.98;;;13.70;;
73859;SDS011;62197;51.632;13.700;2022-10-31T02:13:19;24.45;;;13.25;;
73859;SDS011;62197;51.632;13.700;2022-10-31T02:15:45;23.38;;;13.85;;
73859;SDS011;62197;51.632;13.700;2022-10-31T02:18:13;23.60;;;14.82;;
73859;SDS011;62197;51.632;13.700;2022-10-31T02:34:26;19.48;;;11.73;;
73859;SDS011;62197;51.632;13.700;2022-10-31T02:37:29;20.92;;;11.85;;
73859;SDS011;62197;51.632;13.700;2022-10-31T02:40:17;19.67;;;11.95;;
73859;SDS011;62197;51.632;13.700;2022-10-31T02:42:50;22.23;;;12.10;;
73859;SDS011;62197;51.632;13.700;2022-10-31T02:48:14;19.75;;;11.98;;
73859;SDS011;62197;51.632;13.700;2022-10-31T02:50:43;21.58;;;12.50;;
73859;SDS011;62197;51.632;13.700;2022-10-31T02:53:16;18.42;;;11.48;;
73859;SDS011;62197;51.632;13.700;2022-10-31T02:58:12;18.90;;;11.63;;
73859;SDS011;62197;51.632;13.700;2022-10-31T03:00:42;15.52;;;10.88;;
73859;SDS011;62197;51.632;13.700;2022-10-31T03:06:34;21.60;;;10.52;;
73859;SDS011;62197;51.632;13.700;2022-10-31T03:09:03;17.17;;;9.68;;
73859;SDS011;62197;51.632;13.700;2022-10-31T03:11:58;19.00;;;9.55;;
73859;SDS011;62197;51.632;13.700;2022-10-31T03:14:48;15.18;;;9.35;;
73859;SDS011;62197;51.632;13.700;2022-10-31T03:17:23;13.85;;;8.60;;
73859;SDS011;62197;51.632;13.700;2022-10-31T03:19:59;13.93;;;9.57;;
73859;SDS011;62197;51.632;13.700;2022-10-31T03:22:27;17.08;;;9.32;;
73859;SDS011;62197;51.632;13.700;2022-10-31T03:24:56;19.23;;;10.00;;
73859;SDS011;62197;51.632;13.700;2022-10-31T03:27:23;14.10;;;8.82;;
73859;SDS011;62197;51.632;13.700;2022-10-31T03:29:52;15.50;;;8.82;;
73859;SDS011;62197;51.632;13.700;2022-10-31T03:32:42;14.88;;;8.70;;
73859;SDS011;62197;51.632;13.700;2022-10-31T03:35:09;14.82;;;7.93;;
73859;SDS011;62197;51.632;13.700;2022-10-31T03:37:37;12.50;;;8.65;;
73859;SDS011;62197;51.632;13.700;2022-10-31T03:40:05;13.18;;;8.10;;
73859;SDS011;62197;51.632;13.700;2022-10-31T03:42:33;15.77;;;8.65;;
73859;SDS011;62197;51.632;13.700;2022-10-31T03:47:38;12.65;;;8.07;;
73859;SDS011;62197;51.632;13.700;2022-10-31T03:50:05;13.82;;;8.80;;
73859;SDS011;62197;51.632;13.700;2022-10-31T03:52:41;13.00;;;8.13;;
73859;SDS011;62197;51.632;13.700;2022-10-31T03:55:15;13.82;;;8.15;;
73859;SDS011;62197;51.632;13.700;2022-10-31T03:57:46;13.52;;;7.78;;
73859;SDS011;62197;51.632;13.700;2022-10-31T04:00:20;14.23;;;7.70;;
73859;SDS011;62197;51.632;13.700;2022-10-31T04:02:51;16.17;;;8.85;;
73859;SDS011;62197;51.632;13.700;2022-10-31T04:05:23;21.27;;;9.80;;
73859;SDS011;62197;51.632;13.700;2022-10-31T04:07:50;15.43;;;7.72;;
73859;SDS011;62197;51.632;13.700;2022-10-31T04:10:18;18.20;;;8.20;;
73859;SDS011;62197;51.632;13.700;2022-10-31T04:12:45;14.23;;;8.70;;
73859;SDS011;62197;51.632;13.700;2022-10-31T04:15:16;10.88;;;7.38;;
73859;SDS011;62197;51.632;13.700;2022-10-31T04:17:43;11.27;;;7.15;;
73859;SDS011;62197;51.632;13.700;2022-10-31T04:20:15;13.15;;;7.22;;
73859;SDS011;62197;51.632;13.700;2022-10-31T04:22:41;16.98;;;6.80;;
73859;SDS011;62197;51.632;13.700;2022-10-31T04:25:06;17.77;;;8.77;;
73859;SDS011;62197;51.632;13.700;2022-10-31T04:27:32;12.20;;;6.80;;
73859;SDS011;62197;51.632;13.700;2022-10-31T04:29:57;12.50;;;7.90;;
73859;SDS011;62197;51.632;13.700;2022-10-31T04:32:24;12.65;;;7.57;;
73859;SDS011;62197;51.632;13.700;2022-10-31T04:37:14;18.20;;;8.17;;
73859;SDS011;62197;51.632;13.700;2022-10-31T04:39:40;11.93;;;7.10;;
73859;SDS011;62197;51.632;13.700;2022-10-31T04:44:30;13.70;;;6.13;;
73859;SDS011;62197;51.632;13.700;2022-10-31T04:46:56;8.60;;;5.32;;
73859;SDS011;62197;51.632;13.700;2022-10-31T04:51:46;12.77;;;6.20;;
73859;SDS011;62197;51.632;13.700;2022-10-31T04:54:11;10.07;;;6.63;;
73859;SDS011;62197;51.632;13.700;2022-10-31T04:56:37;14.98;;;7.45;;
73859;SDS011;62197;51.632;13.700;2022-10-31T04:59:02;11.80;;;6.25;;
73859;SDS011;62197;51.632;13.700;2022-10-31T05:01:28;13.77;;;7.07;;
73859;SDS011;62197;51.632;13.700;2022-10-31T05:03:53;12.80;;;7.47;;
73859;SDS011;62197;51.632;13.700;2022-10-31T05:06:18;11.52;;;6.65;;
73859;SDS011;62197;51.632;13.700;2022-10-31T05:08:44;11.93;;;6.32;;
73859;SDS011;62197;51.632;13.700;2022-10-31T05:11:09;13.25;;;6.47;;
73859;SDS011;62197;51.632;13.700;2022-10-31T05:13:34;14.35;;;6.55;;
73859;SDS011;62197;51.632;13.700;2022-10-31T05:16:00;14.65;;;7.55;;
73859;SDS011;62197;51.632;13.700;2022-10-31T05:18:25;12.02;;;7.32;;
73859;SDS011;62197;51.632;13.700;2022-10-31T05:20:50;14.25;;;8.00;;
73859;SDS011;62197;51.632;13.700;2022-10-31T05:23:16;11.77;;;6.63;;
73859;SDS011;62197;51.632;13.700;2022-10-31T05:25:41;15.15;;;6.78;;
73859;SDS011;62197;51.632;13.700;2022-10-31T05:28:06;14.68;;;7.10;;
73859;SDS011;62197;51.632;13.700;2022-10-31T05:30:32;15.00;;;7.72;;
73859;SDS011;62197;51.632;13.700;2022-10-31T05:32:58;12.18;;;7.80;;
73859;SDS011;62197;51.632;13.700;2022-10-31T05:35:25;13.00;;;7.70;;
73859;SDS011;62197;51.632;13.700;2022-10-31T05:37:51;12.32;;;6.53;;
73859;SDS011;62197;51.632;13.700;2022-10-31T05:40:17;13.07;;;6.20;;
73859;SDS011;62197;51.632;13.700;2022-10-31T05:42:44;11.48;;;6.25;;
73859;SDS011;62197;51.632;13.700;2022-10-31T05:45:10;10.20;;;6.97;;
73859;SDS011;62197;51.632;13.700;2022-10-31T05:47:37;11.95;;;6.68;;
73859;SDS011;62197;51.632;13.700;2022-10-31T05:52:27;9.13;;;6.20;;
73859;SDS011;62197;51.632;13.700;2022-10-31T05:54:53;12.02;;;5.80;;
73859;SDS011;62197;51.632;13.700;2022-10-31T05:57:18;11.10;;;5.60;;
73859;SDS011;62197;51.632;13.700;2022-10-31T05:59:43;9.25;;;5.82;;
73859;SDS011;62197;51.632;13.700;2022-10-31T06:02:09;14.85;;;6.78;;
73859;SDS011;62197;51.632;13.700;2022-10-31T06:04:34;14.68;;;6.95;;
73859;SDS011;62197;51.632;13.700;2022-10-31T06:07:00;11.30;;;6.75;;
73859;SDS011;62197;51.632;13.700;2022-10-31T06:09:25;12.80;;;6.93;;
73859;SDS011;62197;51.632;13.700;2022-10-31T06:11:50;11.55;;;6.38;;
73859;SDS011;62197;51.632;13.700;2022-10-31T06:14:16;10.88;;;7.07;;
73859;SDS011;62197;51.632;13.700;2022-10-31T06:16:41;13.52;;;7.55;;
73859;SDS011;62197;51.632;13.700;2022-10-31T06:19:06;16.02;;;8.68;;
73859;SDS011;62197;51.632;13.700;2022-10-31T06:21:31;11.95;;;7.05;;
73859;SDS011;62197;51.632;13.700;2022-10-31T06:23:57;14.90;;;6.85;;
73859;SDS011;62197;51.632;13.700;2022-10-31T06:26:22;10.63;;;7.28;;
73859;SDS011;62197;51.632;13.700;2022-10-31T06:28:48;11.77;;;7.00;;
73859;SDS011;62197;51.632;13.700;2022-10-31T06:31:13;12.88;;;7.30;;
73859;SDS011;62197;51.632;13.700;2022-10-31T06:33:40;12.05;;;7.55;;
73859;SDS011;62197;51.632;13.700;2022-10-31T06:36:06;12.10;;;7.70;;
73859;SDS011;62197;51.632;13.700;2022-10-31T06:38:31;13.75;;;7.07;;
73859;SDS011;62197;51.632;13.700;2022-10-31T06:40:57;13.48;;;7.50;;
73859;SDS011;62197;51.632;13.700;2022-10-31T06:43:22;11.45;;;6.53;;
73859;SDS011;62197;51.632;13.700;2022-10-31T06:45:47;12.57;;;8.13;;
73859;SDS011;62197;51.632;13.700;2022-10-31T06:48:13;12.15;;;7.03;;
73859;SDS011;62197;51.632;13.700;2022-10-31T06:50:38;12.13;;;7.00;;
73859;SDS011;62197;51.632;13.700;2022-10-31T06:53:04;11.23;;;6.85;;
73859;SDS011;62197;51.632;13.700;2022-10-31T06:55:29;10.63;;;7.95;;
73859;SDS011;62197;51.632;13.700;2022-10-31T06:57:55;14.95;;;7.68;;
73859;SDS011;62197;51.632;13.700;2022-10-31T07:00:22;11.05;;;7.30;;
73859;SDS011;62197;51.632;13.700;2022-10-31T07:02:59;13.70;;;8.23;;
73859;SDS011;62197;51.632;13.700;2022-10-31T07:05:26;12.35;;;8.15;;
73859;SDS011;62197;51.632;13.700;2022-10-31T07:07:53;13.15;;;7.72;;
73859;SDS011;62197;51.632;13.700;2022-10-31T07:10:19;10.25;;;7.15;;
73859;SDS011;62197;51.632;13.700;2022-10-31T07:12:44;12.73;;;7.57;;
73859;SDS011;62197;51.632;13.700;2022-10-31T07:15:09;15.80;;;8.85;;
73859;SDS011;62197;51.632;13.700;2022-10-31T07:17:35;15.35;;;7.72;;
73859;SDS011;62197;51.632;13.700;2022-10-31T07:22:31;11.17;;;7.60;;
73859;SDS011;62197;51.632;13.700;2022-10-31T07:24:57;12.32;;;8.00;;
73859;SDS011;62197;51.632;13.700;2022-10-31T07:29:48;13.53;;;8.03;;
73859;SDS011;62197;51.632;13.700;2022-10-31T07:32:13;12.90;;;7.32;;
73859;SDS011;62197;51.632;13.700;2022-10-31T07:37:04;15.23;;;8.60;;
73859;SDS011;62197;51.632;13.700;2022-10-31T07:41:54;16.87;;;7.87;;
73859;SDS011;62197;51.632;13.700;2022-10-31T07:44:23;11.75;;;8.25;;
73859;SDS011;62197;51.632;13.700;2022-10-31T07:49:13;16.73;;;9.53;;
73859;SDS011;62197;51.632;13.700;2022-10-31T07:54:04;12.73;;;6.83;;
73859;SDS011;62197;51.632;13.700;2022-10-31T07:58:54;11.90;;;7.50;;
73859;SDS011;62197;51.632;13.700;2022-10-31T08:03:45;13.60;;;6.33;;
73859;SDS011;62197;51.632;13.700;2022-10-31T08:08:35;13.87;;;6.97;;
73859;SDS011;62197;51.632;13.700;2022-10-31T08:13:26;18.77;;;9.30;;
73859;SDS011;62197;51.632;13.700;2022-10-31T08:18:18;12.32;;;7.05;;
73859;SDS011;62197;51.632;13.700;2022-10-31T08:20:44;12.43;;;7.57;;
73859;SDS011;62197;51.632;13.700;2022-10-31T08:23:10;16.65;;;8.18;;
73859;SDS011;62197;51.632;13.700;2022-10-31T08:25:36;14.98;;;8.93;;
73859;SDS011;62197;51.632;13.700;2022-10-31T08:28:02;17.73;;;7.45;;
73859;SDS011;62197;51.632;13.700;2022-10-31T08:30:29;11.10;;;6.63;;
73859;SDS011;62197;51.632;13.700;2022-10-31T08:33:03;12.68;;;6.57;;
73859;SDS011;62197;51.632;13.700;2022-10-31T08:37:59;12.33;;;6.57;;
73859;SDS011;62197;51.632;13.700;2022-10-31T08:40:25;10.85;;;5.10;;
73859;SDS011;62197;51.632;13.700;2022-10-31T08:42:55;11.13;;;6.40;;
73859;SDS011;62197;51.632;13.700;2022-10-31T08:45:22;13.32;;;6.25;;
73859;SDS011;62197;51.632;13.700;2022-10-31T08:47:47;8.82;;;5.97;;
73859;SDS011;62197;51.632;13.700;2022-10-31T08:50:13;12.48;;;6.85;;
73859;SDS011;62197;51.632;13.700;2022-10-31T08:52:38;14.75;;;6.63;;
73859;SDS011;62197;51.632;13.700;2022-10-31T08:55:04;11.13;;;6.18;;
73859;SDS011;62197;51.632;13.700;2022-10-31T08:57:29;10.95;;;6.80;;
73859;SDS011;62197;51.632;13.700;2022-10-31T08:59:55;11.30;;;6.15;;
73859;SDS011;62197;51.632;13.700;2022-10-31T09:02:20;10.13;;;6.60;;
73859;SDS011;62197;51.632;13.700;2022-10-31T09:04:45;12.48;;;7.10;;
73859;SDS011;62197;51.632;13.700;2022-10-31T09:07:11;13.00;;;6.80;;
73859;SDS011;62197;51.632;13.700;2022-10-31T09:12:04;10.50;;;6.00;;
73859;SDS011;62197;51.632;13.700;2022-10-31T09:14:30;9.13;;;5.95;;
73859;SDS011;62197;51.632;13.700;2022-10-31T09:16:55;11.77;;;6.38;;
73859;SDS011;62197;51.632;13.700;2022-10-31T09:19:20;12.93;;;6.43;;
73859;SDS011;62197;51.632;13.700;2022-10-31T09:24:11;10.40;;;5.50;;
73859;SDS011;62197;51.632;13.700;2022-10-31T09:26:36;10.93;;;5.95;;
73859;SDS011;62197;51.632;13.700;2022-10-31T09:29:01;13.05;;;5.60;;
73859;SDS011;62197;51.632;13.700;2022-10-31T09:31:27;11.38;;;5.82;;
73859;SDS011;62197;51.632;13.700;2022-10-31T09:33:53;13.35;;;7.18;;
73859;SDS011;62197;51.632;13.700;2022-10-31T09:36:19;10.43;;;5.93;;
73859;SDS011;62197;51.632;13.700;2022-10-31T09:38:44;11.25;;;5.55;;
73859;SDS011;62197;51.632;13.700;2022-10-31T09:41:19;16.45;;;7.97;;
73859;SDS011;62197;51.632;13.700;2022-10-31T09:44:13;9.93;;;6.15;;
73859;SDS011;62197;51.632;13.700;2022-10-31T09:52:35;11.82;;;6.57;;
73859;SDS011;62197;51.632;13.700;2022-10-31T09:55:12;16.20;;;7.30;;
73859;SDS011;62197;51.632;13.700;2022-10-31T09:57:42;12.98;;;6.85;;
73859;SDS011;62197;51.632;13.700;2022-10-31T10:00:19;17.08;;;6.40;;
73859;SDS011;62197;51.632;13.700;2022-10-31T10:05:49;12.43;;;6.95;;
73859;SDS011;62197;51.632;13.700;2022-10-31T10:08:23;11.13;;;6.63;;
73859;SDS011;62197;51.632;13.700;2022-10-31T10:15:59;10.60;;;6.22;;
73859;SDS011;62197;51.632;13.700;2022-10-31T10:18:38;10.30;;;5.68;;
73859;SDS011;62197;51.632;13.700;2022-10-31T10:26:42;11.73;;;6.13;;
73859;SDS011;62197;51.632;13.700;2022-10-31T10:32:26;16.02;;;6.13;;
73859;SDS011;62197;51.632;13.700;2022-10-31T10:34:55;12.43;;;6.50;;
73859;SDS011;62197;51.632;13.700;2022-10-31T10:37:45;16.90;;;6.00;;
73859;SDS011;62197;51.632;13.700;2022-10-31T10:40:18;13.15;;;7.15;;
73859;SDS011;62197;51.632;13.700;2022-10-31T10:42:59;15.00;;;7.50;;
73859;SDS011;62197;51.632;13.700;2022-10-31T10:49:37;17.42;;;7.70;;
73859;SDS011;62197;51.632;13.700;2022-10-31T10:58:03;11.48;;;6.78;;
73859;SDS011;62197;51.632;13.700;2022-10-31T11:00:32;17.05;;;7.30;;
73859;SDS011;62197;51.632;13.700;2022-10-31T11:03:01;18.88;;;7.47;;
73859;SDS011;62197;51.632;13.700;2022-10-31T11:05:29;17.92;;;7.20;;
73859;SDS011;62197;51.632;13.700;2022-10-31T11:08:00;12.13;;;5.90;;
73859;SDS011;62197;51.632;13.700;2022-10-31T11:10:26;11.10;;;6.38;;
73859;SDS011;62197;51.632;13.700;2022-10-31T11:12:59;15.90;;;6.50;;
73859;SDS011;62197;51.632;13.700;2022-10-31T11:15:27;13.20;;;7.00;;
73859;SDS011;62197;51.632;13.700;2022-10-31T11:17:54;10.93;;;6.65;;
73859;SDS011;62197;51.632;13.700;2022-10-31T11:20:25;12.65;;;7.28;;
73859;SDS011;62197;51.632;13.700;2022-10-31T11:23:15;12.40;;;6.50;;
73859;SDS011;62197;51.632;13.700;2022-10-31T11:25:52;14.63;;;7.13;;
73859;SDS011;62197;51.632;13.700;2022-10-31T11:28:20;10.52;;;7.63;;
73859;SDS011;62197;51.632;13.700;2022-10-31T11:31:05;14.07;;;6.53;;
73859;SDS011;62197;51.632;13.700;2022-10-31T11:33:36;11.90;;;6.55;;
73859;SDS011;62197;51.632;13.700;2022-10-31T11:36:26;8.48;;;6.35;;
73859;SDS011;62197;51.632;13.700;2022-10-31T11:38:52;13.23;;;6.25;;
73859;SDS011;62197;51.632;13.700;2022-10-31T11:41:36;13.27;;;7.15;;
73859;SDS011;62197;51.632;13.700;2022-10-31T11:46:54;12.57;;;7.57;;
73859;SDS011;62197;51.632;13.700;2022-10-31T11:49:31;11.20;;;6.38;;
73859;SDS011;62197;51.632;13.700;2022-10-31T11:52:06;14.80;;;7.00;;
73859;SDS011;62197;51.632;13.700;2022-10-31T11:54:44;15.35;;;6.90;;
73859;SDS011;62197;51.632;13.700;2022-10-31T11:57:25;14.40;;;7.55;;
73859;SDS011;62197;51.632;13.700;2022-10-31T12:00:25;11.48;;;6.78;;
73859;SDS011;62197;51.632;13.700;2022-10-31T12:02:51;11.18;;;6.65;;
73859;SDS011;62197;51.632;13.700;2022-10-31T12:05:28;13.30;;;6.72;;
73859;SDS011;62197;51.632;13.700;2022-10-31T12:07:57;18.70;;;7.18;;
73859;SDS011;62197;51.632;13.700;2022-10-31T12:10:24;15.18;;;7.32;;
73859;SDS011;62197;51.632;13.700;2022-10-31T12:13:13;10.75;;;6.25;;
73859;SDS011;62197;51.632;13.700;2022-10-31T12:15:57;16.70;;;6.97;;
73859;SDS011;62197;51.632;13.700;2022-10-31T12:23:52;10.70;;;5.88;;
73859;SDS011;62197;51.632;13.700;2022-10-31T12:37:37;13.63;;;7.32;;
73859;SDS011;62197;51.632;13.700;2022-10-31T12:40:36;12.43;;;7.05;;
73859;SDS011;62197;51.632;13.700;2022-10-31T12:46:00;14.95;;;7.50;;
73859;SDS011;62197;51.632;13.700;2022-10-31T12:56:47;12.07;;;6.35;;
73859;SDS011;62197;51.632;13.700;2022-10-31T13:02:10;11.73;;;6.43;;
73859;SDS011;62197;51.632;13.700;2022-10-31T13:07:42;16.23;;;7.63;;
73859;SDS011;62197;51.632;13.700;2022-10-31T13:12:37;13.02;;;6.32;;
73859;SDS011;62197;51.632;13.700;2022-10-31T13:15:11;15.70;;;7.30;;
73859;SDS011;62197;51.632;13.700;2022-10-31T13:17:52;15.68;;;8.00;;
73859;SDS011;62197;51.632;13.700;2022-10-31T13:20:22;15.60;;;7.90;;
73859;SDS011;62197;51.632;13.700;2022-10-31T13:25:50;16.10;;;8.55;;
73859;SDS011;62197;51.632;13.700;2022-10-31T13:31:09;17.20;;;9.05;;
73859;SDS011;62197;51.632;13.700;2022-10-31T13:33:39;17.15;;;8.63;;
73859;SDS011;62197;51.632;13.700;2022-10-31T13:36:23;17.55;;;9.68;;
73859;SDS011;62197;51.632;13.700;2022-10-31T13:38:54;15.48;;;9.23;;
73859;SDS011;62197;51.632;13.700;2022-10-31T13:41:52;14.95;;;9.02;;
73859;SDS011;62197;51.632;13.700;2022-10-31T13:44:22;23.40;;;9.95;;
73859;SDS011;62197;51.632;13.700;2022-10-31T13:46:50;17.60;;;9.02;;
73859;SDS011;62197;51.632;13.700;2022-10-31T13:54:35;15.00;;;9.15;;
73859;SDS011;62197;51.632;13.700;2022-10-31T13:57:02;16.67;;;9.50;;
73859;SDS011;62197;51.632;13.700;2022-10-31T13:59:31;13.60;;;8.82;;
73859;SDS011;62197;51.632;13.700;2022-10-31T14:02:02;21.08;;;10.45;;
73859;SDS011;62197;51.632;13.700;2022-10-31T14:04:47;17.30;;;9.55;;
73859;SDS011;62197;51.632;13.700;2022-10-31T14:07:17;16.58;;;9.85;;
73859;SDS011;62197;51.632;13.700;2022-10-31T14:10:03;22.38;;;10.35;;
73859;SDS011;62197;51.632;13.700;2022-10-31T14:15:52;18.02;;;10.13;;
73859;SDS011;62197;51.632;13.700;2022-10-31T14:17:48;22.27;;;11.00;;
73859;SDS011;62197;51.632;13.700;2022-10-31T14:20:42;19.98;;;11.15;;
73859;SDS011;62197;51.632;13.700;2022-10-31T14:28:50;19.85;;;11.13;;
73859;SDS011;62197;51.632;13.700;2022-10-31T14:34:18;16.40;;;10.55;;
73859;SDS011;62197;51.632;13.700;2022-10-31T14:50:59;25.60;;;12.00;;
73859;SDS011;62197;51.632;13.700;2022-10-31T14:53:31;16.55;;;10.00;;
73859;SDS011;62197;51.632;13.700;2022-10-31T14:55:59;20.67;;;9.52;;
73859;SDS011;62197;51.632;13.700;2022-10-31T14:58:35;17.63;;;11.00;;
73859;SDS011;62197;51.632;13.700;2022-10-31T15:01:04;19.25;;;11.48;;
73859;SDS011;62197;51.632;13.700;2022-10-31T15:03:35;20.42;;;11.13;;
73859;SDS011;62197;51.632;13.700;2022-10-31T15:06:11;21.52;;;11.57;;
73859;SDS011;62197;51.632;13.700;2022-10-31T15:08:44;17.52;;;11.60;;
73859;SDS011;62197;51.632;13.700;2022-10-31T15:13:42;22.25;;;10.02;;
73859;SDS011;62197;51.632;13.700;2022-10-31T15:16:09;21.02;;;11.35;;
73859;SDS011;62197;51.632;13.700;2022-10-31T15:18:47;21.13;;;10.23;;
73859;SDS011;62197;51.632;13.700;2022-10-31T15:21:16;20.88;;;11.38;;
73859;SDS011;62197;51.632;13.700;2022-10-31T15:23:42;23.48;;;12.38;;
73859;SDS011;62197;51.632;13.700;2022-10-31T15:26:18;25.67;;;12.98;;
73859;SDS011;62197;51.632;13.700;2022-10-31T15:28:45;19.48;;;11.27;;
73859;SDS011;62197;51.632;13.700;2022-10-31T15:31:17;26.27;;;13.23;;
73859;SDS011;62197;51.632;13.700;2022-10-31T15:33:45;20.10;;;12.38;;
73859;SDS011;62197;51.632;13.700;2022-10-31T15:36:18;21.13;;;11.60;;
73859;SDS011;62197;51.632;13.700;2022-10-31T15:38:48;23.77;;;13.35;;
73859;SDS011;62197;51.632;13.700;2022-10-31T15:41:22;20.80;;;12.48;;
73859;SDS011;62197;51.632;13.700;2022-10-31T15:43:48;24.73;;;12.52;;
73859;SDS011;62197;51.632;13.700;2022-10-31T15:46:14;24.85;;;12.43;;
73859;SDS011;62197;51.632;13.700;2022-10-31T15:48:43;25.80;;;14.50;;
73859;SDS011;62197;51.632;13.700;2022-10-31T15:51:10;23.77;;;12.63;;
73859;SDS011;62197;51.632;13.700;2022-10-31T15:53:46;24.65;;;13.15;;
73859;SDS011;62197;51.632;13.700;2022-10-31T15:56:22;24.45;;;14.05;;
73859;SDS011;62197;51.632;13.700;2022-10-31T15:58:50;23.33;;;13.65;;
73859;SDS011;62197;51.632;13.700;2022-10-31T16:04:14;21.08;;;13.23;;
73859;SDS011;62197;51.632;13.700;2022-10-31T16:06:51;29.05;;;14.50;;
73859;SDS011;62197;51.632;13.700;2022-10-31T16:09:23;25.98;;;15.18;;
73859;SDS011;62197;51.632;13.700;2022-10-31T16:11:49;27.75;;;16.35;;
73859;SDS011;62197;51.632;13.700;2022-10-31T16:14:15;29.10;;;15.70;;
73859;SDS011;62197;51.632;13.700;2022-10-31T16:19:24;29.23;;;15.90;;
73859;SDS011;62197;51.632;13.700;2022-10-31T16:21:54;26.48;;;15.77;;
73859;SDS011;62197;51.632;13.700;2022-10-31T16:24:30;33.67;;;19.27;;
73859;SDS011;62197;51.632;13.700;2022-10-31T16:27:03;26.00;;;16.02;;
73859;SDS011;62197;51.632;13.700;2022-10-31T16:29:34;36.03;;;17.45;;
73859;SDS011;62197;51.632;13.700;2022-10-31T16:32:23;34.50;;;18.80;;
73859;SDS011;62197;51.632;13.700;2022-10-31T16:37:36;32.38;;;18.38;;
73859;SDS011;62197;51.632;13.700;2022-10-31T16:40:02;28.20;;;17.45;;
73859;SDS011;62197;51.632;13.700;2022-10-31T16:42:28;31.10;;;19.50;;
73859;SDS011;62197;51.632;13.700;2022-10-31T16:44:53;32.53;;;20.50;;
73859;SDS011;62197;51.632;13.700;2022-10-31T16:47:18;41.38;;;23.42;;
73859;SDS011;62197;51.632;13.700;2022-10-31T16:49:46;34.97;;;20.23;;
73859;SDS011;62197;51.632;13.700;2022-10-31T16:52:13;37.13;;;20.23;;
73859;SDS011;62197;51.632;13.700;2022-10-31T16:54:39;38.35;;;22.45;;
73859;SDS011;62197;51.632;13.700;2022-10-31T16:57:05;37.97;;;22.25;;
73859;SDS011;62197;51.632;13.700;2022-10-31T16:59:31;44.97;;;23.20;;
73859;SDS011;62197;51.632;13.700;2022-10-31T17:02:00;39.22;;;21.40;;
73859;SDS011;62197;51.632;13.700;2022-10-31T17:04:27;33.55;;;19.98;;
73859;SDS011;62197;51.632;13.700;2022-10-31T17:06:53;37.85;;;20.90;;
73859;SDS011;62197;51.632;13.700;2022-10-31T17:09:18;36.67;;;22.80;;
73859;SDS011;62197;51.632;13.700;2022-10-31T17:11:45;44.42;;;25.00;;
73859;SDS011;62197;51.632;13.700;2022-10-31T17:14:12;36.85;;;23.65;;
73859;SDS011;62197;51.632;13.700;2022-10-31T17:16:38;38.30;;;22.65;;
73859;SDS011;62197;51.632;13.700;2022-10-31T17:19:03;33.70;;;21.70;;
73859;SDS011;62197;51.632;13.700;2022-10-31T17:21:29;43.40;;;22.25;;
73859;SDS011;62197;51.632;13.700;2022-10-31T17:23:54;44.97;;;24.20;;
73859;SDS011;62197;51.632;13.700;2022-10-31T17:26:20;52.72;;;32.75;;
73859;SDS011;62197;51.632;13.700;2022-10-31T17:28:45;46.83;;;30.45;;
73859;SDS011;62197;51.632;13.700;2022-10-31T17:31:27;46.95;;;27.55;;
73859;SDS011;62197;51.632;13.700;2022-10-31T17:33:57;48.15;;;29.60;;
73859;SDS011;62197;51.632;13.700;2022-10-31T17:36:23;61.97;;;32.78;;
73859;SDS011;62197;51.632;13.700;2022-10-31T17:38:49;69.40;;;38.03;;
73859;SDS011;62197;51.632;13.700;2022-10-31T17:41:14;53.55;;;31.58;;
73859;SDS011;62197;51.632;13.700;2022-10-31T17:46:05;49.03;;;25.90;;
73859;SDS011;62197;51.632;13.700;2022-10-31T17:48:34;41.92;;;26.90;;
73859;SDS011;62197;51.632;13.700;2022-10-31T17:51:01;43.65;;;25.35;;
73859;SDS011;62197;51.632;13.700;2022-10-31T17:53:28;49.80;;;27.98;;
73859;SDS011;62197;51.632;13.700;2022-10-31T17:55:58;45.72;;;24.92;;
73859;SDS011;62197;51.632;13.700;2022-10-31T17:58:33;48.10;;;26.85;;
73859;SDS011;62197;51.632;13.700;2022-10-31T18:01:00;44.95;;;26.83;;
73859;SDS011;62197;51.632;13.700;2022-10-31T18:03:25;47.00;;;27.35;;
73859;SDS011;62197;51.632;13.700;2022-10-31T18:05:54;43.13;;;25.50;;
73859;SDS011;62197;51.632;13.700;2022-10-31T18:08:25;42.75;;;26.13;;
73859;SDS011;62197;51.632;13.700;2022-10-31T18:10:54;55.08;;;27.92;;
73859;SDS011;62197;51.632;13.700;2022-10-31T18:13:21;50.97;;;27.13;;